Terminal Aerodrome Forecast
Issued by NWS Cleveland, OH

Home | Current Version | Previous Version | Text Only | Print | Product List | Glossary On
Versions: 1 2 3 4 5 6 7 8 9 10 11 12 13 14 15 16 17 18 19 20
000
FTUS41 KCLE 040540
TAFMFD
TAF
KMFD 040540Z 0406/0506 12006KT 6SM -SHRA BR BKN040 OVC080
      TEMPO 0406/0408 VRB05KT 4SM TSRA BR SCT006 BKN035CB
     FM040900 17004KT 4SM BR SCT006 BKN060
      TEMPO 0410/0413 2SM BR BKN006
     FM041300 19006KT P6SM SCT250
     FM041900 19006KT P6SM VCTS BKN045CB
     FM050000 15003KT P6SM SCT050 BKN250=

USA.gov is the U.S. government's official web portal to all federal, state and local government web resources and services.